createdAt,value
2023-03-21T00:00:16.234Z,4.15
2023-03-21T00:01:07.799Z,4.76
2023-03-21T00:01:59.598Z,4.25
2023-03-21T00:02:51.489Z,4.24
2023-03-21T00:03:48.123Z,4.54
2023-03-21T00:04:50.810Z,4.34
2023-03-21T00:05:51.703Z,4.40
2023-03-21T00:06:43.686Z,4.46
2023-03-21T00:07:35.209Z,4.32
2023-03-21T00:08:27.377Z,4.36
2023-03-21T00:09:20.441Z,3.87
2023-03-21T00:10:18.024Z,4.20
2023-03-21T00:11:13.203Z,4.59
2023-03-21T00:12:08.683Z,4.49
2023-03-21T00:13:00.231Z,3.91
2023-03-21T00:13:53.621Z,3.78
2023-03-21T00:14:45.939Z,4.30
2023-03-21T00:15:58.018Z,4.25
2023-03-21T00:16:55.184Z,4.45
2023-03-21T00:17:50.894Z,4.48
2023-03-21T00:18:48.629Z,4.32
2023-03-21T00:19:41.223Z,4.15
2023-03-21T00:20:37.750Z,4.50
2023-03-21T00:22:03.576Z,4.50
2023-03-21T00:22:43.674Z,4.08
2023-03-21T00:23:36.349Z,4.19
2023-03-21T00:24:27.947Z,4.70
2023-03-21T00:25:19.995Z,4.35
2023-03-21T00:26:11.948Z,4.21
2023-03-21T00:28:20.991Z,3.96
2023-03-21T00:29:13.396Z,4.01
2023-03-21T00:30:06.139Z,4.49
2023-03-21T00:31:01.082Z,4.38
2023-03-21T00:31:52.863Z,4.20
2023-03-21T00:32:55.473Z,4.60
2023-03-21T00:33:47.749Z,4.37
2023-03-21T00:34:43.301Z,4.10
2023-03-21T00:36:05.692Z,4.42
2023-03-21T00:36:58.375Z,4.24
2023-03-21T00:37:49.879Z,4.41
2023-03-21T00:38:41.933Z,4.47
2023-03-21T00:39:33.409Z,4.14
2023-03-21T00:40:29.618Z,4.32
2023-03-21T00:41:41.155Z,4.58
2023-03-21T00:42:33.470Z,4.42
2023-03-21T00:43:30.143Z,4.12
2023-03-21T00:44:23.348Z,4.17
2023-03-21T00:45:16.573Z,4.17
2023-03-21T00:46:08.588Z,3.92
2023-03-21T00:47:07.581Z,4.11
2023-03-21T00:47:59.752Z,4.26
2023-03-21T00:48:53.230Z,4.10
2023-03-21T00:49:45.839Z,4.35
2023-03-21T00:50:38.781Z,3.97
2023-03-21T00:51:30.475Z,4.08
2023-03-21T00:52:38.004Z,4.01
2023-03-21T00:53:31.692Z,4.18
2023-03-21T00:54:23.975Z,4.33
2023-03-21T00:55:17.580Z,3.74
2023-03-21T00:56:09.529Z,4.26
2023-03-21T00:57:02.846Z,4.47
2023-03-21T00:58:01.468Z,4.15
2023-03-21T00:58:53.673Z,4.37
2023-03-21T00:59:45.718Z,4.42
2023-03-21T01:00:37.780Z,4.25
2023-03-21T01:01:32.206Z,4.33
2023-03-21T01:02:26.543Z,4.27
2023-03-21T01:03:24.965Z,4.32
2023-03-21T01:04:17.127Z,4.17
2023-03-21T01:05:11.521Z,4.06
2023-03-21T01:06:07.639Z,4.20
2023-03-21T01:06:59.291Z,4.31
2023-03-21T01:07:53.063Z,4.15
2023-03-21T01:08:54.234Z,4.34
2023-03-21T01:09:45.906Z,4.00
2023-03-21T01:10:42.685Z,4.49
2023-03-21T01:11:35.050Z,4.17
2023-03-21T01:12:28.589Z,4.09
2023-03-21T01:13:23.362Z,4.26
2023-03-21T01:14:23.094Z,4.12
2023-03-21T01:15:15.537Z,4.44
2023-03-21T01:16:09.092Z,4.58
2023-03-21T01:17:00.845Z,4.64
2023-03-21T01:17:52.327Z,4.61
2023-03-21T01:18:43.951Z,4.62
2023-03-21T01:19:50.620Z,4.61
2023-03-21T01:20:45.179Z,4.41
2023-03-21T01:21:37.337Z,4.19
2023-03-21T01:22:28.824Z,4.18
2023-03-21T01:23:20.460Z,4.46
2023-03-21T01:24:11.981Z,4.73
2023-03-21T01:25:21.204Z,4.67
2023-03-21T01:26:15.013Z,4.61
2023-03-21T01:27:08.529Z,4.64
2023-03-21T01:28:00.298Z,4.85
2023-03-21T01:28:52.480Z,4.15
2023-03-21T01:29:44.089Z,4.29
2023-03-21T01:30:41.704Z,4.59
2023-03-21T01:31:33.838Z,4.41
2023-03-21T01:32:26.029Z,4.62
2023-03-21T01:33:19.862Z,5.02
2023-03-21T01:34:11.483Z,4.72
2023-03-21T01:35:03.983Z,4.57
2023-03-21T01:36:06.515Z,4.45
2023-03-21T01:37:03.737Z,4.83
2023-03-21T01:37:59.860Z,4.93
2023-03-21T01:38:53.264Z,5.06
2023-03-21T01:39:46.037Z,5.02
2023-03-21T01:40:38.874Z,4.97
2023-03-21T01:41:44.547Z,5.31
2023-03-21T01:42:45.964Z,6.14
2023-03-21T01:43:40.170Z,5.82
2023-03-21T01:44:33.608Z,5.64
2023-03-21T01:46:02.451Z,6.05
2023-03-21T01:47:13.841Z,6.86
2023-03-21T01:48:11.716Z,6.26
2023-03-21T01:49:25.959Z,6.63
2023-03-21T01:50:26.955Z,6.68
2023-03-21T01:51:27.504Z,6.88
2023-03-21T01:52:37.902Z,6.81
2023-03-21T01:53:40.609Z,7.73
2023-03-21T01:54:38.497Z,6.85
2023-03-21T01:55:31.338Z,7.17
2023-03-21T01:56:36.409Z,7.58
2023-03-21T01:57:51.917Z,7.68
2023-03-21T01:58:55.482Z,7.53
2023-03-21T02:00:12.397Z,7.92
2023-03-21T02:01:23.023Z,6.76
2023-03-21T02:02:29.456Z,7.06
2023-03-21T02:03:38.349Z,7.34
2023-03-21T02:04:41.226Z,6.81
2023-03-21T02:05:50.143Z,7.19
2023-03-21T02:06:54.616Z,7.22
2023-03-21T02:07:56.748Z,7.49
2023-03-21T02:08:48.989Z,7.31
2023-03-21T02:09:46.590Z,6.69
2023-03-21T02:10:50.132Z,6.11
2023-03-21T02:11:55.150Z,6.25
2023-03-21T02:12:48.488Z,6.72
2023-03-21T02:13:40.712Z,6.21
2023-03-21T02:14:38.313Z,6.88
2023-03-21T02:16:06.422Z,6.45
2023-03-21T02:17:20.467Z,5.93
2023-03-21T02:18:30.882Z,5.60
2023-03-21T02:19:35.653Z,5.52
2023-03-21T02:21:06.058Z,5.48
2023-03-21T02:22:43.421Z,5.68
2023-03-21T02:23:37.831Z,6.04
2023-03-21T02:24:42.730Z,5.82
2023-03-21T02:26:01.699Z,5.26
2023-03-21T02:27:15.888Z,5.54
2023-03-21T02:28:29.648Z,5.68
2023-03-21T02:29:48.712Z,5.31
2023-03-21T02:31:06.882Z,5.55
2023-03-21T02:32:37.361Z,5.52
2023-03-21T02:33:48.836Z,5.09
2023-03-21T02:35:00.933Z,5.20
2023-03-21T02:36:14.229Z,4.93
2023-03-21T02:37:36.679Z,4.72
2023-03-21T02:38:47.377Z,5.04
2023-03-21T02:39:50.928Z,4.95
2023-03-21T02:41:05.351Z,5.19
2023-03-21T02:42:34.408Z,4.97
2023-03-21T02:44:06.200Z,5.33
2023-03-21T02:44:59.785Z,5.03
2023-03-21T02:46:01.508Z,5.13
2023-03-21T02:47:06.388Z,5.48
2023-03-21T02:48:26.833Z,5.28
2023-03-21T02:49:31.785Z,4.88
2023-03-21T02:50:33.185Z,5.08
2023-03-21T02:51:30.727Z,4.47
2023-03-21T02:52:39.278Z,4.79
2023-03-21T02:53:40.248Z,4.57
2023-03-21T02:54:47.593Z,4.93
2023-03-21T02:55:47.337Z,4.76
2023-03-21T02:56:42.965Z,4.53
2023-03-21T02:57:42.479Z,4.82
2023-03-21T02:58:41.207Z,4.73
2023-03-21T02:59:39.433Z,5.20
2023-03-21T03:00:40.125Z,4.88
2023-03-21T03:01:32.202Z,5.10
2023-03-21T03:02:28.333Z,4.78
2023-03-21T03:03:33.058Z,5.06
2023-03-21T03:04:28.334Z,4.71
2023-03-21T03:05:28.537Z,5.13
2023-03-21T03:06:29.231Z,5.31
2023-03-21T03:07:41.444Z,4.48
2023-03-21T03:08:59.740Z,4.87
2023-03-21T03:10:26.979Z,5.20
2023-03-21T03:11:24.303Z,4.88
2023-03-21T03:12:45.744Z,5.01
2023-03-21T03:13:46.441Z,4.84
2023-03-21T03:15:03.377Z,4.94
2023-03-21T03:16:36.891Z,4.93
2023-03-21T03:17:47.609Z,4.40
2023-03-21T03:18:49.599Z,4.83
2023-03-21T03:20:15.124Z,5.01
2023-03-21T03:21:20.193Z,5.07
2023-03-21T03:22:23.809Z,4.77
2023-03-21T03:23:55.622Z,5.17
2023-03-21T03:25:19.828Z,4.63
2023-03-21T03:26:30.177Z,4.61
2023-03-21T03:27:32.414Z,4.62
2023-03-21T03:28:36.484Z,4.86
2023-03-21T03:29:38.866Z,4.68
2023-03-21T03:30:41.143Z,4.91
2023-03-21T03:31:44.489Z,5.15
2023-03-21T03:32:50.281Z,5.01
2023-03-21T03:33:52.144Z,4.58
2023-03-21T03:34:50.998Z,4.95
2023-03-21T03:35:53.055Z,5.13
2023-03-21T03:36:59.683Z,5.06
2023-03-21T03:37:59.440Z,4.87
2023-03-21T03:38:51.722Z,4.99
2023-03-21T03:39:56.976Z,5.31
2023-03-21T03:40:58.381Z,5.05
2023-03-21T03:42:21.871Z,4.82
2023-03-21T03:43:36.020Z,5.08
2023-03-21T03:44:28.514Z,4.38
2023-03-21T03:45:35.603Z,4.41
2023-03-21T03:46:33.328Z,4.85
2023-03-21T03:47:57.796Z,4.63
2023-03-21T03:49:04.583Z,5.40
2023-03-21T03:50:06.263Z,4.67
2023-03-21T03:51:16.307Z,4.49
2023-03-21T03:52:40.050Z,4.75
2023-03-21T03:53:43.168Z,4.60
2023-03-21T03:54:41.610Z,4.98
2023-03-21T03:55:34.868Z,4.64
2023-03-21T03:56:38.896Z,4.94
2023-03-21T03:57:30.868Z,4.63
2023-03-21T03:58:33.461Z,4.71
2023-03-21T03:59:35.702Z,4.75
2023-03-21T04:00:50.885Z,4.88
2023-03-21T04:01:42.455Z,4.90
2023-03-21T04:02:34.156Z,4.79
2023-03-21T04:03:29.353Z,4.69
2023-03-21T04:04:28.569Z,4.78
2023-03-21T04:05:21.270Z,5.24
2023-03-21T04:06:13.796Z,4.92
2023-03-21T04:07:06.564Z,5.06
2023-03-21T04:07:58.512Z,5.38
2023-03-21T04:09:03.490Z,5.12
2023-03-21T04:09:57.985Z,4.85
2023-03-21T04:10:49.449Z,5.31
2023-03-21T04:11:41.019Z,5.34
2023-03-21T04:12:32.513Z,5.15
2023-03-21T04:13:44.275Z,4.57
2023-03-21T04:14:45.673Z,4.43
2023-03-21T04:15:38.904Z,5.32
2023-03-21T04:16:38.149Z,5.47
2023-03-21T04:17:29.947Z,5.00
2023-03-21T04:18:23.016Z,4.96
2023-03-21T04:19:15.981Z,5.30
2023-03-21T04:20:15.061Z,5.31
2023-03-21T04:21:13.048Z,5.18
2023-03-21T04:22:05.095Z,4.97
2023-03-21T04:23:01.177Z,5.26
2023-03-21T04:23:55.009Z,4.80
2023-03-21T04:24:47.022Z,4.65
2023-03-21T04:25:47.676Z,4.53
2023-03-21T04:26:45.807Z,4.50
2023-03-21T04:28:03.892Z,4.77
2023-03-21T04:29:14.513Z,4.65
2023-03-21T04:30:34.039Z,4.94
2023-03-21T04:31:35.910Z,4.52
2023-03-21T04:32:39.409Z,4.66
2023-03-21T04:33:38.330Z,4.82
2023-03-21T04:34:30.186Z,4.91
2023-03-21T04:35:25.065Z,5.14
2023-03-21T04:36:25.172Z,5.04
2023-03-21T04:37:19.299Z,4.64
2023-03-21T04:38:12.255Z,5.49
2023-03-21T04:39:11.865Z,5.21
2023-03-21T04:40:07.708Z,4.48
2023-03-21T04:41:00.675Z,4.84
2023-03-21T04:41:54.214Z,4.55
2023-03-21T04:42:47.877Z,4.72
2023-03-21T04:43:39.484Z,4.75
2023-03-21T04:44:31.079Z,4.93
2023-03-21T04:45:22.817Z,4.96
2023-03-21T04:46:14.393Z,4.72
2023-03-21T04:47:07.009Z,4.70
2023-03-21T04:47:59.037Z,5.13
2023-03-21T04:48:51.301Z,4.57
2023-03-21T04:49:48.197Z,5.00
2023-03-21T04:50:40.980Z,5.07
2023-03-21T04:51:33.292Z,5.00
2023-03-21T04:52:25.498Z,4.88
2023-03-21T04:53:17.615Z,4.79
2023-03-21T04:54:12.215Z,4.73
2023-03-21T04:55:04.083Z,4.79
2023-03-21T04:55:57.581Z,4.45
2023-03-21T04:56:49.598Z,4.97
2023-03-21T04:57:41.497Z,5.01
2023-03-21T04:58:33.137Z,5.15
2023-03-21T04:59:24.771Z,5.06
2023-03-21T05:00:17.393Z,5.14
2023-03-21T05:01:09.576Z,5.15
2023-03-21T05:02:01.271Z,4.85
2023-03-21T05:02:52.738Z,4.64
2023-03-21T05:03:45.789Z,4.97
2023-03-21T05:04:37.550Z,5.36
2023-03-21T05:05:29.110Z,5.01
2023-03-21T05:06:21.073Z,5.11
2023-03-21T05:07:14.669Z,5.03
2023-03-21T05:08:06.751Z,5.01
2023-03-21T05:09:00.655Z,4.99
2023-03-21T05:09:52.573Z,5.28
2023-03-21T05:10:44.107Z,4.71
2023-03-21T05:11:38.653Z,4.87
2023-03-21T05:12:30.679Z,5.08
2023-03-21T05:13:22.336Z,4.78
2023-03-21T05:14:21.807Z,5.17
2023-03-21T05:15:13.406Z,4.99
2023-03-21T05:16:05.525Z,5.23
2023-03-21T05:16:58.000Z,5.04
2023-03-21T05:17:52.849Z,4.80
2023-03-21T05:18:44.912Z,4.52
2023-03-21T05:19:42.728Z,4.76
2023-03-21T05:20:35.709Z,4.64
2023-03-21T05:21:29.638Z,4.61
2023-03-21T05:22:26.659Z,4.53
2023-03-21T05:23:18.472Z,4.76
2023-03-21T05:24:14.965Z,5.14
2023-03-21T05:25:08.875Z,5.09
2023-03-21T05:26:15.046Z,5.06
2023-03-21T05:27:35.027Z,5.17
2023-03-21T05:28:31.682Z,4.97
2023-03-21T05:29:24.712Z,5.17
2023-03-21T05:30:21.949Z,4.96
2023-03-21T05:31:18.457Z,5.20
2023-03-21T05:32:12.258Z,5.47
2023-03-21T05:33:04.368Z,5.28
2023-03-21T05:33:55.983Z,4.86
2023-03-21T05:34:47.786Z,5.34
2023-03-21T05:35:40.282Z,5.24
2023-03-21T05:36:35.991Z,5.31
2023-03-21T05:37:29.881Z,4.80
2023-03-21T05:38:21.855Z,5.27
2023-03-21T05:39:16.715Z,5.20
2023-03-21T05:40:17.226Z,5.25
2023-03-21T05:41:11.941Z,5.49
2023-03-21T05:42:03.854Z,5.45
2023-03-21T05:42:56.383Z,5.71
2023-03-21T05:43:49.320Z,5.52
2023-03-21T05:44:40.877Z,5.08
2023-03-21T05:45:34.167Z,5.43
2023-03-21T05:46:25.922Z,5.23
2023-03-21T05:47:18.688Z,5.02
2023-03-21T05:48:12.431Z,4.98
2023-03-21T05:49:22.678Z,5.43
2023-03-21T05:50:19.015Z,5.63
2023-03-21T05:51:19.866Z,6.03
2023-03-21T05:52:11.817Z,5.81
2023-03-21T05:53:03.509Z,6.00
2023-03-21T05:53:55.593Z,5.39
2023-03-21T05:54:47.048Z,5.51
2023-03-21T05:55:39.769Z,5.64
2023-03-21T05:56:36.335Z,5.41
2023-03-21T05:57:30.570Z,5.88
2023-03-21T05:58:29.724Z,5.81
2023-03-21T05:59:21.266Z,5.74
2023-03-21T06:00:17.042Z,5.39
2023-03-21T06:01:08.541Z,5.70
2023-03-21T06:02:02.741Z,5.94
2023-03-21T06:02:54.790Z,5.85
2023-03-21T06:04:10.315Z,5.83
2023-03-21T06:05:01.887Z,6.50
2023-03-21T06:05:53.407Z,6.06
2023-03-21T06:06:50.421Z,6.13
2023-03-21T06:07:42.436Z,6.08
2023-03-21T06:08:35.024Z,5.87
2023-03-21T06:09:26.639Z,6.28
2023-03-21T09:12:42.783Z,8.73
2023-03-21T09:13:34.728Z,10.27
2023-03-21T09:14:28.928Z,10.12
2023-03-21T09:15:24.325Z,9.24
2023-03-21T09:16:16.093Z,8.55
2023-03-21T09:17:07.631Z,8.08
2023-03-21T09:18:13.264Z,8.28
2023-03-21T09:19:08.460Z,7.40
2023-03-21T09:20:10.794Z,7.44
2023-03-21T09:21:02.257Z,7.84
2023-03-21T09:21:55.671Z,7.53
2023-03-21T09:22:55.293Z,7.80
2023-03-21T09:23:48.518Z,7.68
2023-03-21T09:24:42.097Z,7.09
2023-03-21T09:25:33.924Z,7.67
2023-03-21T09:26:28.009Z,7.43
2023-03-21T09:27:25.398Z,7.05
2023-03-21T09:28:17.056Z,6.96
2023-03-21T09:29:08.927Z,7.08
2023-03-21T09:30:00.752Z,7.27
2023-03-21T09:30:52.342Z,7.21
2023-03-21T09:31:44.111Z,7.04
2023-03-21T09:32:37.331Z,7.15
2023-03-21T09:33:29.622Z,7.25
2023-03-21T09:34:21.262Z,6.66
2023-03-21T09:35:12.990Z,6.58
2023-03-21T09:36:09.905Z,7.70
2023-03-21T09:37:02.172Z,6.84
2023-03-21T09:37:55.196Z,6.71
2023-03-21T09:38:49.158Z,6.78
2023-03-21T09:39:42.756Z,7.03
2023-03-21T09:40:53.027Z,6.76
2023-03-21T09:42:02.355Z,6.55
2023-03-21T09:43:14.760Z,6.76
2023-03-21T09:44:24.842Z,6.89
2023-03-21T09:45:28.092Z,7.08
2023-03-21T09:46:29.262Z,6.93
2023-03-21T09:47:29.432Z,6.07
2023-03-21T09:48:46.967Z,6.48
2023-03-21T09:50:13.072Z,6.75
2023-03-21T09:51:16.049Z,6.93
2023-03-21T09:52:19.791Z,7.17
2023-03-21T09:53:33.331Z,6.73
2023-03-21T09:54:35.952Z,6.92
2023-03-21T09:55:31.725Z,6.92
2023-03-21T09:56:26.263Z,6.59
2023-03-21T09:57:27.373Z,7.32
2023-03-21T09:58:34.631Z,7.03
2023-03-21T09:59:38.370Z,7.01
2023-03-21T10:00:43.441Z,7.51
2023-03-21T10:01:42.123Z,6.86
2023-03-21T10:02:45.497Z,7.07
2023-03-21T10:03:38.213Z,6.53
2023-03-21T10:04:31.854Z,7.03
2023-03-21T10:05:29.238Z,6.89
2023-03-21T10:06:30.551Z,7.00
2023-03-21T10:07:22.595Z,7.27
2023-03-21T10:08:14.744Z,7.10
2023-03-21T10:09:14.217Z,7.08
2023-03-21T10:10:07.363Z,7.31
2023-03-21T10:11:07.573Z,7.00
2023-03-21T10:12:08.413Z,7.18
2023-03-21T10:12:59.816Z,7.27
2023-03-21T10:13:58.377Z,6.79
2023-03-21T10:14:58.685Z,6.33
2023-03-21T10:15:51.757Z,7.43
2023-03-21T10:16:52.016Z,6.94
2023-03-21T10:17:51.837Z,6.77
2023-03-21T10:18:46.906Z,7.00
2023-03-21T10:19:38.412Z,6.89
2023-03-21T10:20:36.448Z,6.69
2023-03-21T10:21:56.904Z,6.62
2023-03-21T10:22:42.495Z,7.12
2023-03-21T10:23:34.181Z,6.84
2023-03-21T10:24:29.031Z,6.71
2023-03-21T10:25:34.382Z,7.30
2023-03-21T10:26:30.557Z,6.60
2023-03-21T10:27:22.218Z,6.22
2023-03-21T10:28:19.357Z,6.85
2023-03-21T10:29:16.624Z,6.94
2023-03-21T10:30:18.385Z,6.70
2023-03-21T10:31:17.911Z,6.37
2023-03-21T10:32:13.998Z,5.94
2023-03-21T10:33:12.873Z,5.96
2023-03-21T10:34:15.692Z,6.27
2023-03-21T10:35:10.740Z,5.76
2023-03-21T10:36:08.323Z,6.27
2023-03-21T10:37:03.728Z,6.08
2023-03-21T10:37:55.627Z,6.21
2023-03-21T10:38:52.898Z,6.19
2023-03-21T10:39:50.396Z,5.93
2023-03-21T10:40:41.961Z,6.21
2023-03-21T10:41:33.984Z,5.89
2023-03-21T10:42:29.908Z,5.92
2023-03-21T10:43:27.321Z,5.90
2023-03-21T10:44:20.720Z,5.86
2023-03-21T10:45:19.383Z,5.83
2023-03-21T10:46:21.260Z,5.96
2023-03-21T10:47:24.453Z,5.76
2023-03-21T10:48:16.285Z,5.89
2023-03-21T10:49:08.402Z,6.04
2023-03-21T10:50:11.920Z,5.50
2023-03-21T10:51:09.440Z,5.38
2023-03-21T10:52:18.205Z,5.93
2023-03-21T10:53:22.682Z,5.46
2023-03-21T10:54:19.888Z,5.44
2023-03-21T10:55:21.649Z,6.00
2023-03-21T10:56:17.260Z,5.61
2023-03-21T10:57:15.625Z,5.34
2023-03-21T10:58:18.648Z,5.87
2023-03-21T10:59:20.727Z,5.74
2023-03-21T11:00:22.680Z,5.01
2023-03-21T11:01:41.860Z,5.21
2023-03-21T11:02:37.642Z,5.59
2023-03-21T11:03:38.400Z,5.36
2023-03-21T11:04:30.822Z,5.02
2023-03-21T11:05:37.223Z,5.37
2023-03-21T11:06:35.143Z,4.80
2023-03-21T11:07:31.576Z,4.74
2023-03-21T11:08:29.807Z,5.04
2023-03-21T11:09:28.064Z,5.05
2023-03-21T11:10:30.170Z,5.18
2023-03-21T11:11:29.706Z,4.69
2023-03-21T11:12:37.219Z,4.77
2023-03-21T11:13:44.176Z,4.60
2023-03-21T11:14:43.458Z,5.69
2023-03-21T11:15:48.830Z,5.01
2023-03-21T11:16:44.394Z,4.96
2023-03-21T11:17:36.097Z,4.97
2023-03-21T11:18:33.035Z,5.15
2023-03-21T11:19:33.462Z,5.38
2023-03-21T11:20:30.747Z,4.81
2023-03-21T11:21:29.747Z,4.82
2023-03-21T11:22:24.846Z,5.25
2023-03-21T11:23:18.696Z,5.14
2023-03-21T11:24:18.398Z,5.39
2023-03-21T11:25:23.136Z,5.61
2023-03-21T11:26:43.465Z,5.03
2023-03-21T11:27:35.894Z,5.29
2023-03-21T11:28:38.297Z,5.03
2023-03-21T11:29:34.688Z,5.40
2023-03-21T11:30:28.075Z,5.48
2023-03-21T11:31:21.349Z,5.41
2023-03-21T11:32:22.119Z,5.34
2023-03-21T11:33:13.824Z,4.96
2023-03-21T11:34:08.632Z,5.16
2023-03-21T11:35:06.408Z,5.33
2023-03-21T11:36:05.351Z,5.58
2023-03-21T11:37:02.540Z,5.54
2023-03-21T11:37:56.300Z,5.48
2023-03-21T11:39:15.750Z,5.23
2023-03-21T11:40:07.288Z,5.59
2023-03-21T11:41:02.333Z,5.86
2023-03-21T11:41:53.846Z,5.67
2023-03-21T11:42:51.635Z,5.31
2023-03-21T11:43:52.607Z,5.68
2023-03-21T11:44:45.262Z,5.83
2023-03-21T11:45:38.611Z,5.71
2023-03-21T11:46:39.723Z,5.65
2023-03-21T11:47:31.601Z,5.43
2023-03-21T11:48:24.033Z,5.70
2023-03-21T11:49:15.506Z,5.89
2023-03-21T11:50:27.506Z,5.44
2023-03-21T11:51:56.211Z,5.76
2023-03-21T11:53:13.191Z,5.68
2023-03-21T11:54:13.972Z,5.35
2023-03-21T11:55:42.816Z,5.48
2023-03-21T11:56:36.440Z,5.73
2023-03-21T11:57:37.137Z,5.34
2023-03-21T11:59:03.679Z,5.30
2023-03-21T12:00:14.342Z,5.85
2023-03-21T12:01:14.098Z,5.72
2023-03-21T12:02:55.244Z,5.51
2023-03-21T12:03:58.655Z,5.64
2023-03-21T12:05:02.363Z,5.56
2023-03-21T12:06:00.186Z,5.16
2023-03-21T12:07:23.139Z,5.35
2023-03-21T12:08:39.294Z,6.05
2023-03-21T12:09:45.098Z,5.39
2023-03-21T12:10:54.516Z,5.00
2023-03-21T12:12:11.767Z,5.54
2023-03-21T12:13:34.316Z,5.28
2023-03-21T12:14:49.184Z,5.12
2023-03-21T12:15:55.721Z,5.05
2023-03-21T12:17:16.186Z,5.58
2023-03-21T12:18:49.258Z,5.76
2023-03-21T12:20:01.884Z,5.60
2023-03-21T12:20:59.581Z,5.22
2023-03-21T12:22:18.766Z,5.18
2023-03-21T12:23:38.037Z,5.62
2023-03-21T12:24:49.463Z,4.85
2023-03-21T12:25:56.412Z,5.53
2023-03-21T12:27:14.572Z,5.58
2023-03-21T12:28:33.276Z,4.99
2023-03-21T12:29:43.386Z,5.65
2023-03-21T12:30:53.485Z,5.39
2023-03-21T12:32:34.488Z,5.06
2023-03-21T12:34:06.717Z,5.34
2023-03-21T12:35:11.635Z,5.60
2023-03-21T12:36:21.875Z,5.55
2023-03-21T12:37:35.888Z,5.22
2023-03-21T12:38:44.067Z,5.44
2023-03-21T12:39:38.876Z,5.64
2023-03-21T12:40:54.541Z,5.44
2023-03-21T12:42:00.716Z,4.99
2023-03-21T12:43:03.843Z,5.24
2023-03-21T12:44:03.048Z,5.67
2023-03-21T12:45:11.615Z,5.27
2023-03-21T12:46:18.710Z,5.38
2023-03-21T12:47:23.959Z,5.25
2023-03-21T12:48:38.948Z,5.84
2023-03-21T12:49:35.882Z,5.83
2023-03-21T12:50:37.362Z,5.53
2023-03-21T12:51:44.472Z,5.68
2023-03-21T12:52:42.131Z,5.39
2023-03-21T12:53:53.052Z,5.39
2023-03-21T12:55:01.748Z,5.27
2023-03-21T12:56:01.841Z,5.61
2023-03-21T12:57:04.495Z,5.70
2023-03-21T12:58:01.930Z,5.50
2023-03-21T12:59:28.971Z,5.42
2023-03-21T13:00:42.728Z,5.53
2023-03-21T13:01:40.116Z,5.83
2023-03-21T13:02:37.839Z,5.55
2023-03-21T13:03:40.559Z,5.74
2023-03-21T13:05:00.053Z,5.76
2023-03-21T13:05:58.200Z,5.56
2023-03-21T13:06:55.773Z,5.69
2023-03-21T13:08:11.256Z,5.19
2023-03-21T13:09:18.044Z,5.08
2023-03-21T13:10:21.000Z,5.73
2023-03-21T13:11:20.149Z,5.31
2023-03-21T13:12:26.132Z,5.47
2023-03-21T13:13:43.017Z,5.00
2023-03-21T13:14:48.652Z,5.58
2023-03-21T13:16:17.538Z,5.33
2023-03-21T13:17:45.277Z,5.45
2023-03-21T13:18:47.024Z,5.04
2023-03-21T13:19:50.045Z,5.72
2023-03-21T13:20:55.545Z,5.33
2023-03-21T13:22:02.012Z,5.19
2023-03-21T13:22:53.526Z,5.10
2023-03-21T13:24:17.260Z,5.26
2023-03-21T13:25:26.268Z,4.82
2023-03-21T13:26:17.824Z,4.91
2023-03-21T13:27:24.938Z,5.23
2023-03-21T13:28:28.270Z,5.54
2023-03-21T13:29:26.928Z,5.45
2023-03-21T13:30:22.788Z,5.40
2023-03-21T13:31:30.517Z,5.02
2023-03-21T13:32:34.024Z,5.16
2023-03-21T13:33:34.528Z,5.15
2023-03-21T13:34:27.050Z,5.15
2023-03-21T13:35:27.819Z,4.80
2023-03-21T13:36:26.701Z,4.82
2023-03-21T13:37:20.127Z,4.56
2023-03-21T13:38:21.091Z,5.38
2023-03-21T13:39:20.965Z,5.22
2023-03-21T13:40:27.342Z,4.69
2023-03-21T13:41:39.322Z,4.79
2023-03-21T13:42:33.654Z,5.03
2023-03-21T13:44:06.394Z,5.24
2023-03-21T13:45:00.866Z,5.20
2023-03-21T13:45:53.943Z,5.29
2023-03-21T13:46:55.065Z,5.45
2023-03-21T13:48:04.643Z,4.97
2023-03-21T13:49:13.138Z,5.04
2023-03-21T13:50:19.818Z,5.32
2023-03-21T13:51:11.704Z,5.42
2023-03-21T13:52:27.754Z,5.52
2023-03-21T13:53:22.419Z,5.33
2023-03-21T13:54:13.882Z,5.36
2023-03-21T13:55:16.761Z,5.66
2023-03-21T13:56:17.340Z,5.28
2023-03-21T13:57:41.427Z,5.32
2023-03-21T13:58:32.841Z,5.23
2023-03-21T13:59:44.568Z,5.07
2023-03-21T14:00:39.800Z,4.92
2023-03-21T14:01:41.633Z,5.24
2023-03-21T14:02:34.617Z,4.86
2023-03-21T14:03:33.998Z,4.85
2023-03-21T14:04:42.109Z,4.73
2023-03-21T14:05:35.608Z,4.87
2023-03-21T14:06:38.380Z,5.71
2023-03-21T14:07:34.494Z,5.10
2023-03-21T14:08:37.269Z,5.55
2023-03-21T14:09:39.375Z,5.11
2023-03-21T14:10:39.641Z,5.27
2023-03-21T14:11:34.278Z,5.01
2023-03-21T14:12:37.411Z,4.76
2023-03-21T14:13:31.331Z,5.10
2023-03-21T14:14:47.068Z,5.14
2023-03-21T14:15:54.983Z,5.03
2023-03-21T14:16:47.743Z,4.88
2023-03-21T14:17:39.435Z,4.86
2023-03-21T14:18:58.631Z,4.75
2023-03-21T14:19:42.431Z,4.88
2023-03-21T14:20:39.985Z,4.51
2023-03-21T14:21:34.467Z,4.81
2023-03-21T14:22:26.045Z,4.27
2023-03-21T14:23:17.587Z,4.52
2023-03-21T14:24:14.088Z,4.68
2023-03-21T14:25:12.674Z,4.63
2023-03-21T14:26:04.548Z,4.78
2023-03-21T14:26:56.113Z,4.33
2023-03-21T14:27:55.471Z,4.13
2023-03-21T14:28:51.888Z,4.38
2023-03-21T14:29:46.085Z,4.66
2023-03-21T14:30:40.586Z,4.44
2023-03-21T14:31:34.079Z,4.55
2023-03-21T14:32:29.294Z,4.66
2023-03-21T14:33:56.261Z,4.75
2023-03-21T14:34:49.311Z,5.09
2023-03-21T14:35:42.609Z,4.59
2023-03-21T14:36:43.159Z,4.41
2023-03-21T14:37:41.109Z,4.39
2023-03-21T14:38:35.855Z,4.14
2023-03-21T14:39:32.001Z,4.40
2023-03-21T14:40:27.433Z,4.79
2023-03-21T14:41:24.660Z,4.69
2023-03-21T14:42:16.666Z,4.60
2023-03-21T14:43:12.064Z,4.45
2023-03-21T14:44:26.108Z,4.49
2023-03-21T14:45:24.596Z,4.57
2023-03-21T14:46:16.131Z,4.70
2023-03-21T14:47:18.771Z,4.11
2023-03-21T14:48:16.249Z,4.19
2023-03-21T14:49:25.737Z,4.56
2023-03-21T14:50:19.083Z,4.65
2023-03-21T14:51:12.243Z,4.17
2023-03-21T14:52:10.194Z,4.36
2023-03-21T14:53:03.815Z,4.38
2023-03-21T14:53:57.623Z,4.45
2023-03-21T14:54:50.345Z,4.33
2023-03-21T14:55:46.237Z,4.41
2023-03-21T14:56:39.274Z,4.29
2023-03-21T14:57:33.263Z,4.69
2023-03-21T14:58:26.093Z,4.34
2023-03-21T14:59:23.709Z,4.11
2023-03-21T15:00:24.414Z,4.90
2023-03-21T15:01:27.003Z,4.31
2023-03-21T15:02:31.542Z,4.39
2023-03-21T15:03:27.374Z,4.72
2023-03-21T15:04:21.865Z,4.47
2023-03-21T15:05:33.641Z,4.45
2023-03-21T15:06:25.444Z,4.28
2023-03-21T15:07:54.021Z,4.43
2023-03-21T15:09:04.703Z,4.44
2023-03-21T15:10:04.811Z,4.47
2023-03-21T15:11:09.669Z,4.48
2023-03-21T15:12:07.422Z,4.38
2023-03-21T15:13:03.076Z,4.50
2023-03-21T15:13:56.004Z,4.50
2023-03-21T15:14:49.588Z,3.80
2023-03-21T15:15:42.154Z,4.30
2023-03-21T15:16:35.616Z,4.45
2023-03-21T15:17:28.951Z,3.97
2023-03-21T15:18:27.910Z,4.66
2023-03-21T15:19:28.875Z,4.78
2023-03-21T15:20:27.159Z,4.18
2023-03-21T15:21:30.302Z,4.59
2023-03-21T15:22:24.666Z,4.41
2023-03-21T15:23:28.612Z,4.29
2023-03-21T15:24:31.474Z,4.65
2023-03-21T15:25:30.953Z,4.82
2023-03-21T15:26:25.944Z,4.60
2023-03-21T15:27:20.713Z,4.39
2023-03-21T15:28:15.501Z,4.65
2023-03-21T15:29:07.956Z,4.34
2023-03-21T15:29:59.479Z,4.20
2023-03-21T15:30:53.693Z,4.25
2023-03-21T15:31:48.745Z,4.66
2023-03-21T15:32:40.442Z,4.24
2023-03-21T15:33:33.058Z,4.34
2023-03-21T15:34:29.288Z,4.29
2023-03-21T15:35:29.656Z,4.22
2023-03-21T15:36:25.037Z,4.15
2023-03-21T15:37:22.260Z,4.20
2023-03-21T15:38:36.545Z,4.31
2023-03-21T15:39:29.686Z,3.60
2023-03-21T15:40:34.463Z,3.92
2023-03-21T15:41:29.909Z,3.95
2023-03-21T15:42:32.231Z,3.72
2023-03-21T15:43:23.659Z,4.32
2023-03-21T15:44:15.809Z,4.42
2023-03-21T15:45:33.783Z,4.46
2023-03-21T15:46:50.770Z,4.12
2023-03-21T15:48:06.758Z,3.89
2023-03-21T15:49:13.839Z,4.07
2023-03-21T15:50:24.838Z,4.06
2023-03-21T15:51:23.919Z,3.83
2023-03-21T15:52:17.399Z,3.79
2023-03-21T15:53:17.187Z,3.87
2023-03-21T15:54:17.596Z,4.08
2023-03-21T15:55:27.846Z,4.16
2023-03-21T15:56:22.508Z,3.87
2023-03-21T15:57:29.778Z,3.83
2023-03-21T15:58:24.686Z,3.89
2023-03-21T15:59:19.562Z,3.82
2023-03-21T16:00:38.600Z,3.61
2023-03-21T16:01:34.706Z,3.48
2023-03-21T16:02:30.962Z,3.65
2023-03-21T16:03:33.245Z,3.93
2023-03-21T16:04:25.815Z,3.90
2023-03-21T16:05:31.443Z,3.71
2023-03-21T16:06:31.015Z,3.65
2023-03-21T16:07:24.467Z,3.97
2023-03-21T16:08:28.208Z,4.23
2023-03-21T16:09:26.458Z,3.81
2023-03-21T16:10:34.055Z,3.82
2023-03-21T16:11:30.724Z,3.71
2023-03-21T16:12:24.533Z,3.91
2023-03-21T16:13:17.775Z,4.10
2023-03-21T16:14:11.658Z,3.80
2023-03-21T16:15:03.518Z,4.16
2023-03-21T16:15:55.189Z,3.91
2023-03-21T16:16:47.054Z,4.15
2023-03-21T16:17:39.436Z,4.20
2023-03-21T16:18:31.978Z,4.18
2023-03-21T16:19:24.566Z,4.61
2023-03-21T16:20:21.634Z,3.99
2023-03-21T16:21:15.377Z,3.87
2023-03-21T16:22:10.105Z,4.02
2023-03-21T16:23:01.873Z,4.06
2023-03-21T16:23:53.767Z,4.42